Terminal Aerodrome Forecast
Issued by NWS

Home | Current Version | Previous Version | Text Only | Print | Product List | Glossary Off
Versions: 1 2 3 4 5 6 7 8 9 10 11 12 13

000
FTUS41 KCLE 280500
TAFFDY
TAF
KFDY 280531Z 2806/2906 21012KT P6SM BKN120 WS020/22045KT
     FM281400 23015G25KT 4SM SHRA VCTS OVC040CB
     FM281800 27015G25KT P6SM -SHRA OVC025
     FM282300 27008KT P6SM BKN035=

USA.gov is the U.S. government's official web portal to all federal, state and local government web resources and services.